Time;durP1;ratioP1;P1;durP2;ratioP2;P2;SDS_P1;SDS_P2;PMS_P1;PMS_P2;Temp;Humidity;BMP_temperature;BMP_pressure;BME280_temperature;BME280_humidity;BME280_pressure;Samples;Min_cycle;Max_cycle;Signal;HPM_P1;HPM_P2
2022/01/25 00:09:15;;;;;;;6.62;5.90;;;-1.50;99.90;;;;;;459848;258;27983;-67
2022/01/25 00:31:13;;;;;;;5.12;4.60;;;-1.50;99.90;;;;;;460307;258;28028;-67
2022/01/25 00:33:12;;;;;;;6.70;4.90;;;-1.60;99.90;;;;;;459859;258;27341;-68
2022/01/25 00:35:13;;;;;;;6.05;4.60;;;-1.60;99.90;;;;;;459839;258;27578;-68
2022/01/25 00:37:14;;;;;;;6.35;5.68;;;-1.60;99.90;;;;;;459888;258;27811;-67
2022/01/25 00:39:16;;;;;;;4.85;4.25;;;-1.60;99.90;;;;;;459894;258;27346;-67
2022/01/25 00:41:17;;;;;;;5.12;4.45;;;-1.60;99.90;;;;;;459895;258;27939;-68
2022/01/25 00:43:20;;;;;;;5.18;4.65;;;-1.60;99.90;;;;;;459882;258;27889;-67
2022/01/25 00:45:20;;;;;;;5.15;4.28;;;-1.60;99.90;;;;;;459839;258;27951;-68
2022/01/25 00:47:21;;;;;;;4.55;4.10;;;-1.60;99.90;;;;;;459884;258;27594;-67
2022/01/25 00:49:27;;;;;;;6.18;4.72;;;-1.60;99.90;;;;;;459868;258;27555;-68
2022/01/25 00:51:56;;;;;;;4.95;4.10;;;-1.60;99.90;;;;;;459874;258;27521;-68
2022/01/25 00:55:44;;;;;;;5.20;4.30;;;-1.70;99.90;;;;;;459890;258;27463;-68
2022/01/25 00:57:45;;;;;;;5.55;4.20;;;-1.70;99.90;;;;;;460343;258;27473;-67
2022/01/25 00:59:47;;;;;;;6.57;5.07;;;-1.70;99.90;;;;;;459866;258;27919;-68
2022/01/25 01:01:48;;;;;;;5.00;4.12;;;-1.70;99.90;;;;;;459871;258;29161;-68
2022/01/25 01:03:49;;;;;;;5.10;4.35;;;-1.70;99.90;;;;;;459878;258;27397;-68
2022/01/25 01:05:50;;;;;;;7.82;4.82;;;-1.70;99.90;;;;;;459882;258;27458;-68
2022/01/25 01:07:52;;;;;;;5.12;3.95;;;-1.70;99.90;;;;;;459875;258;27503;-68
2022/01/25 01:09:54;;;;;;;8.60;4.43;;;-1.70;99.90;;;;;;459889;258;27482;-68
2022/01/25 01:12:01;;;;;;;4.62;4.05;;;-1.80;99.90;;;;;;459901;258;27487;-67
2022/01/25 01:14:03;;;;;;;5.03;4.40;;;-1.80;99.90;;;;;;459737;258;27494;-68
2022/01/25 01:32:04;;;;;;;4.47;4.07;;;-1.70;99.90;;;;;;460340;258;28750;-68
2022/01/25 01:44:49;;;;;;;6.37;4.95;;;-2.00;99.90;;;;;;459893;258;27342;-68
2022/01/25 01:46:44;;;;;;;7.35;4.82;;;-2.00;99.90;;;;;;459921;258;27484;-68
2022/01/25 01:49:00;;;;;;;4.97;4.47;;;-2.00;99.90;;;;;;459870;258;27980;-68
2022/01/25 01:50:43;;;;;;;5.37;4.78;;;-2.00;99.90;;;;;;458814;258;27491;-68
2022/01/25 01:52:44;;;;;;;4.35;4.03;;;-2.00;99.90;;;;;;459899;258;27446;-68
2022/01/25 01:54:45;;;;;;;4.87;4.45;;;-2.00;99.90;;;;;;459882;258;27556;-68
2022/01/25 01:56:46;;;;;;;4.85;3.95;;;-1.90;99.90;;;;;;459874;258;27507;-68
2022/01/25 01:58:48;;;;;;;6.15;4.78;;;-2.00;99.90;;;;;;459858;258;27920;-68
2022/01/25 02:00:49;;;;;;;6.28;4.82;;;-2.00;99.90;;;;;;459884;258;28072;-68
2022/01/25 02:02:50;;;;;;;7.03;4.90;;;-2.00;99.90;;;;;;459859;258;28069;-68
2022/01/25 02:04:51;;;;;;;7.55;5.80;;;-2.00;99.90;;;;;;459872;258;27523;-68
2022/01/25 02:06:53;;;;;;;5.82;5.07;;;-2.00;99.90;;;;;;459855;258;27410;-68
2022/01/25 02:08:54;;;;;;;7.07;5.28;;;-2.00;99.90;;;;;;459861;258;27341;-68
2022/01/25 02:10:55;;;;;;;5.97;5.10;;;-2.00;99.90;;;;;;459889;258;27345;-68
2022/01/25 02:12:56;;;;;;;8.70;5.62;;;-2.00;99.90;;;;;;459865;258;27492;-68
2022/01/25 02:14:58;;;;;;;7.50;4.85;;;-2.00;99.90;;;;;;459879;258;27263;-68
2022/01/25 02:17:24;;;;;;;5.43;4.53;;;-2.10;99.90;;;;;;459847;258;27523;-68
2022/01/25 02:23:48;;;;;;;6.65;5.00;;;-2.10;99.90;;;;;;460335;257;27640;-68
2022/01/25 02:25:49;;;;;;;5.62;5.12;;;-2.00;99.90;;;;;;459888;258;27485;-68
2022/01/25 02:27:51;;;;;;;6.60;5.22;;;-2.00;99.90;;;;;;459873;258;27979;-68
2022/01/25 02:29:52;;;;;;;7.35;5.00;;;-2.10;99.90;;;;;;459867;258;29004;-68
2022/01/25 02:31:53;;;;;;;8.02;4.47;;;-2.10;99.90;;;;;;459842;258;27755;-68
2022/01/25 02:33:55;;;;;;;6.10;5.10;;;-2.10;99.90;;;;;;459905;258;27467;-68
2022/01/25 02:35:56;;;;;;;5.32;4.82;;;-2.10;99.90;;;;;;459888;258;27444;-68
2022/01/25 02:37:57;;;;;;;5.53;4.93;;;-2.20;99.90;;;;;;459882;258;27237;-68
2022/01/25 02:39:58;;;;;;;4.85;4.30;;;-2.10;99.90;;;;;;459868;258;27218;-68
2022/01/25 02:42:00;;;;;;;6.60;4.65;;;-2.10;99.90;;;;;;459868;258;27431;-67
2022/01/25 02:44:03;;;;;;;5.37;4.50;;;-2.10;99.90;;;;;;459877;258;27413;-68
2022/01/25 02:50:28;;;;;;;6.37;4.80;;;-2.20;99.90;;;;;;459867;258;27298;-68
2022/01/25 02:52:30;;;;;;;4.30;3.90;;;-2.10;99.90;;;;;;460345;258;27281;-67
2022/01/25 02:54:31;;;;;;;7.22;5.05;;;-2.10;99.90;;;;;;459882;258;27587;-68
2022/01/25 02:56:32;;;;;;;7.25;5.10;;;-2.10;99.90;;;;;;459869;258;28009;-67
2022/01/25 02:58:33;;;;;;;4.32;3.78;;;-2.20;99.90;;;;;;459869;258;28867;-68
2022/01/25 03:00:35;;;;;;;5.15;4.65;;;-2.20;99.90;;;;;;459859;258;29139;-68
2022/01/25 03:02:36;;;;;;;6.18;4.62;;;-2.20;99.90;;;;;;459899;258;27452;-67
2022/01/25 03:04:37;;;;;;;5.30;4.10;;;-2.20;99.90;;;;;;459891;258;27296;-67
2022/01/25 03:06:38;;;;;;;6.75;5.57;;;-2.20;99.90;;;;;;459886;258;27358;-67
2022/01/25 03:08:40;;;;;;;6.35;4.90;;;-2.20;99.90;;;;;;459863;258;27611;-68
2022/01/25 03:10:41;;;;;;;6.53;4.60;;;-2.30;99.90;;;;;;459867;258;27490;-67
2022/01/25 03:12:50;;;;;;;6.47;5.12;;;-2.30;99.90;;;;;;459887;258;27400;-68
2022/01/25 03:15:10;;;;;;;5.47;4.57;;;-2.30;99.90;;;;;;459870;258;27558;-68
2022/01/25 03:17:05;;;;;;;4.82;4.15;;;-2.30;99.90;;;;;;459940;258;27855;-67
2022/01/25 03:18:50;;;;;;;6.87;4.70;;;-2.30;99.90;;;;;;459751;258;27775;-68
2022/01/25 03:20:51;;;;;;;7.15;4.68;;;-2.30;99.90;;;;;;459868;258;28844;-67
2022/01/25 03:24:56;;;;;;;4.72;4.03;;;-2.30;99.90;;;;;;459882;258;27398;-67
2022/01/25 03:26:57;;;;;;;6.35;4.70;;;-2.30;99.90;;;;;;459875;258;27426;-68
2022/01/25 03:28:58;;;;;;;5.32;4.78;;;-2.20;99.90;;;;;;459892;258;27416;-68
2022/01/25 03:31:00;;;;;;;7.93;5.90;;;-2.20;99.90;;;;;;459877;258;27514;-68
2022/01/25 03:33:02;;;;;;;9.45;7.10;;;-2.30;99.90;;;;;;459882;258;27548;-68
2022/01/25 03:35:03;;;;;;;8.98;5.97;;;-2.30;99.90;;;;;;459853;258;27476;-68
2022/01/25 03:37:04;;;;;;;10.65;6.20;;;-2.40;99.90;;;;;;459868;258;27833;-68
2022/01/25 03:39:06;;;;;;;10.25;6.32;;;-2.30;99.90;;;;;;459875;258;27883;-68
2022/01/25 03:41:07;;;;;;;10.05;6.40;;;-2.30;99.90;;;;;;459890;258;27542;-67
2022/01/25 03:43:09;;;;;;;9.40;5.60;;;-2.30;99.90;;;;;;459898;258;27590;-68
2022/01/25 03:45:17;;;;;;;8.20;5.90;;;-2.30;99.90;;;;;;459861;258;27439;-67
2022/01/25 03:47:15;;;;;;;10.00;5.70;;;-2.40;99.90;;;;;;459872;258;27393;-67
2022/01/25 03:51:31;;;;;;;6.05;5.10;;;-2.40;99.90;;;;;;459899;258;27356;-68
2022/01/25 03:53:33;;;;;;;9.18;6.50;;;-2.40;99.90;;;;;;460354;254;27328;-67
2022/01/25 03:55:34;;;;;;;7.60;5.37;;;-2.40;99.90;;;;;;459894;258;27478;-68
2022/01/25 03:57:35;;;;;;;6.37;4.97;;;-2.50;99.90;;;;;;459903;258;27481;-68
2022/01/25 03:59:36;;;;;;;8.35;5.90;;;-2.50;99.90;;;;;;459881;258;27437;-68
2022/01/25 04:01:38;;;;;;;5.20;4.62;;;-2.40;99.90;;;;;;459874;258;27460;-68
2022/01/25 04:03:45;;;;;;;6.35;5.32;;;-2.40;99.90;;;;;;459850;258;27384;-68
2022/01/25 04:07:50;;;;;;;6.10;5.50;;;-2.40;99.90;;;;;;459892;258;27413;-68
2022/01/25 04:09:46;;;;;;;5.95;4.80;;;-2.50;99.90;;;;;;459840;258;27117;-68
2022/01/25 04:11:47;;;;;;;6.53;5.20;;;-2.50;99.90;;;;;;459843;258;27494;-68
2022/01/25 04:13:51;;;;;;;8.38;5.05;;;-2.60;99.90;;;;;;459862;258;27735;-67
2022/01/25 04:15:52;;;;;;;5.28;4.37;;;-2.50;99.90;;;;;;459877;258;27657;-67
2022/01/25 04:18:00;;;;;;;7.28;5.43;;;-2.60;99.90;;;;;;459833;258;27298;-68
2022/01/25 04:26:20;;;;;;;8.43;4.87;;;-2.70;99.90;;;;;;455152;258;27334;-67
2022/01/25 04:28:21;;;;;;;7.45;5.45;;;-2.70;99.90;;;;;;459896;258;27385;-67
2022/01/25 04:30:22;;;;;;;5.10;4.60;;;-2.70;99.90;;;;;;459851;258;26996;-68
2022/01/25 04:32:41;;;;;;;6.70;4.20;;;-2.70;99.90;;;;;;459881;258;27023;-68
2022/01/25 04:34:39;;;;;;;5.85;4.90;;;-2.70;99.90;;;;;;459249;258;27838;-68
2022/01/25 04:50:13;;;;;;;5.35;3.95;;;;;;;;;;459849;258;27062;-68
2022/01/25 04:52:18;;;;;;;6.47;4.85;;;-2.80;99.90;;;;;;459639;258;26582;-68
2022/01/25 04:54:30;;;;;;;5.85;4.37;;;-2.80;99.90;;;;;;459864;258;27152;-67
2022/01/25 04:57:20;;;;;;;5.47;4.20;;;-2.80;99.90;;;;;;459921;258;27266;-67
2022/01/25 04:58:37;;;;;;;5.80;4.65;;;;;;;;;;456653;258;27232;-67
2022/01/25 05:00:29;;;;;;;4.95;4.12;;;-2.70;99.90;;;;;;459349;258;26559;-67
2022/01/25 05:04:56;;;;;;;5.72;4.40;;;-2.90;99.90;;;;;;459897;258;27667;-67
2022/01/25 05:06:54;;;;;;;8.90;5.50;;;-2.90;99.90;;;;;;460324;258;27150;-68
2022/01/25 05:08:55;;;;;;;5.75;4.75;;;-2.90;99.90;;;;;;459853;258;27110;-68
2022/01/25 05:11:04;;;;;;;4.50;3.78;;;-2.90;99.90;;;;;;459906;258;27138;-67
2022/01/25 05:13:14;;;;;;;7.10;4.85;;;-2.80;99.90;;;;;;459893;255;27926;-67
2022/01/25 05:15:06;;;;;;;5.87;4.30;;;-2.80;99.90;;;;;;459969;258;28707;-67
2022/01/25 05:17:04;;;;;;;5.28;4.68;;;;;;;;;;459878;258;27173;-68
2022/01/25 05:19:22;;;;;;;8.10;5.07;;;-2.90;99.90;;;;;;459689;258;27004;-68
2022/01/25 05:23:29;;;;;;;11.50;5.37;;;-2.90;99.90;;;;;;459869;258;27075;-68
2022/01/25 05:25:32;;;;;;;7.53;5.03;;;;;;;;;;459876;258;27089;-67
2022/01/25 05:27:33;;;;;;;7.85;5.95;;;-3.00;99.90;;;;;;459693;258;26655;-68
2022/01/25 05:29:35;;;;;;;9.80;6.07;;;;;;;;;;459876;258;27049;-68
2022/01/25 05:31:36;;;;;;;6.93;5.50;;;-3.00;99.90;;;;;;459855;258;27093;-67
2022/01/25 05:33:38;;;;;;;7.50;6.10;;;-2.90;99.90;;;;;;459903;258;27640;-67
2022/01/25 05:35:39;;;;;;;8.15;5.50;;;-2.80;99.90;;;;;;459860;258;28693;-68
2022/01/25 05:37:42;;;;;;;7.95;5.50;;;;;;;;;;459863;258;27053;-68
2022/01/25 05:39:45;;;;;;;8.65;5.53;;;-2.90;99.90;;;;;;459839;258;26559;-68
2022/01/25 05:41:53;;;;;;;9.20;6.55;;;-2.90;99.90;;;;;;460336;258;27321;-67
2022/01/25 05:44:09;;;;;;;8.65;6.25;;;-2.90;99.90;;;;;;459887;258;27635;-67
2022/01/25 05:46:00;;;;;;;10.20;5.80;;;;;;;;;;459917;258;27753;-68
2022/01/25 05:47:59;;;;;;;8.85;5.80;;;;;;;;;;459680;258;26630;-68
2022/01/25 05:50:00;;;;;;;8.18;5.65;;;-2.90;99.90;;;;;;460348;258;26590;-67
2022/01/25 05:52:01;;;;;;;9.30;5.90;;;-2.90;99.90;;;;;;459870;258;27143;-68
2022/01/25 05:54:03;;;;;;;7.95;5.70;;;-2.90;99.90;;;;;;459868;258;27602;-68
2022/01/25 05:56:04;;;;;;;7.85;5.93;;;-2.90;99.90;;;;;;459888;258;27474;-67
2022/01/25 05:58:07;;;;;;;9.60;5.85;;;;;;;;;;459834;258;27121;-68
2022/01/25 06:00:09;;;;;;;7.87;5.93;;;;;;;;;;459881;258;26632;-68
2022/01/25 06:02:10;;;;;;;9.43;5.57;;;-3.00;99.90;;;;;;459857;258;27142;-68
2022/01/25 06:04:11;;;;;;;6.97;5.18;;;-3.00;99.90;;;;;;459882;258;27895;-68
2022/01/25 06:06:14;;;;;;;6.22;4.65;;;;;;;;;;459888;258;27038;-67
2022/01/25 06:08:15;;;;;;;7.53;5.25;;;-3.00;99.90;;;;;;459854;258;26481;-68
2022/01/25 06:10:16;;;;;;;7.45;5.72;;;-3.00;99.90;;;;;;460326;258;27617;-68
2022/01/25 06:12:19;;;;;;;12.10;7.03;;;;;;;;;;459857;258;27467;-67
2022/01/25 06:14:21;;;;;;;6.60;5.78;;;;;;;;;;459862;258;26543;-67
2022/01/25 06:16:24;;;;;;;6.87;5.22;;;-3.10;99.90;;;;;;459883;258;27462;-68
2022/01/25 06:18:25;;;;;;;7.68;5.82;;;;;;;;;;459870;258;27010;-68
2022/01/25 06:20:28;;;;;;;8.13;6.20;;;;;;;;;;459865;258;26783;-67
2022/01/25 06:22:30;;;;;;;8.65;6.75;;;;;;;;;;460310;258;26663;-67
2022/01/25 06:24:31;;;;;;;5.95;5.35;;;-3.20;99.90;;;;;;459887;258;27153;-67
2022/01/25 06:26:33;;;;;;;6.65;5.37;;;;;;;;;;459843;258;27615;-67
2022/01/25 06:28:36;;;;;;;7.85;5.85;;;;;;;;;;459874;258;26855;-67
2022/01/25 06:30:37;;;;;;;9.05;6.10;;;-3.20;99.90;;;;;;459836;258;27070;-68
2022/01/25 06:32:40;;;;;;;10.40;6.82;;;;;;;;;;459819;258;27458;-69
2022/01/25 06:34:41;;;;;;;6.43;5.45;;;-3.30;99.90;;;;;;459838;258;26818;-68
2022/01/25 06:36:43;;;;;;;8.30;5.55;;;;;;;;;;459844;258;27597;-68
2022/01/25 06:38:44;;;;;;;7.95;5.80;;;-3.20;99.90;;;;;;459842;258;26551;-67
2022/01/25 06:40:46;;;;;;;9.27;6.43;;;-3.20;99.90;;;;;;459842;258;27491;-67
2022/01/25 06:42:48;;;;;;;10.23;7.53;;;;;;;;;;459884;258;27831;-67
2022/01/25 06:44:55;;;;;;;9.93;6.75;;;;;;;;;;459875;258;26590;-68
2022/01/25 06:46:52;;;;;;;9.68;5.95;;;-3.20;99.90;;;;;;459622;258;27468;-68
2022/01/25 06:48:54;;;;;;;9.43;6.35;;;;;;;;;;459863;258;27579;-67
2022/01/25 06:50:55;;;;;;;8.63;6.15;;;-3.10;99.90;;;;;;459848;258;26669;-68
2022/01/25 06:52:58;;;;;;;8.40;6.45;;;;;;;;;;459877;258;27016;-68
2022/01/25 06:54:59;;;;;;;8.60;6.45;;;-3.10;99.90;;;;;;459879;258;26646;-68
2022/01/25 06:57:02;;;;;;;9.48;6.70;;;;;;;;;;460344;258;27135;-67
2022/01/25 06:59:03;;;;;;;8.40;6.40;;;-3.10;99.90;;;;;;459850;258;27345;-68
2022/01/25 07:01:04;;;;;;;9.32;6.53;;;-3.10;99.90;;;;;;459851;258;27763;-67
2022/01/25 07:03:07;;;;;;;8.48;6.60;;;;;;;;;;459881;258;27644;-67
2022/01/25 07:05:09;;;;;;;12.20;7.68;;;;;;;;;;459867;258;26810;-68
2022/01/25 07:07:11;;;;;;;8.15;6.40;;;;;;;;;;459859;258;26867;-68
2022/01/25 07:09:13;;;;;;;9.60;7.37;;;-3.10;99.90;;;;;;460348;258;27863;-67
2022/01/25 07:11:14;;;;;;;11.48;7.32;;;-3.10;99.90;;;;;;459862;258;27611;-68
2022/01/25 07:13:16;;;;;;;8.00;6.50;;;;;;;;;;459871;258;27572;-68
2022/01/25 07:15:18;;;;;;;8.80;6.45;;;-3.10;99.90;;;;;;459880;258;26564;-67
2022/01/25 07:17:19;;;;;;;8.35;6.37;;;-3.10;99.90;;;;;;460330;258;27113;-68
2022/01/25 07:19:21;;;;;;;11.50;7.00;;;;;;;;;;459848;258;27568;-67
2022/01/25 07:21:24;;;;;;;8.30;6.15;;;;;;;;;;459858;258;26926;-67
2022/01/25 07:23:26;;;;;;;7.90;6.40;;;;;;;;;;460349;258;27022;-67
2022/01/25 07:25:27;;;;;;;9.50;6.25;;;-3.00;99.90;;;;;;459858;258;26564;-68
2022/01/25 07:27:29;;;;;;;6.35;5.37;;;-2.90;99.90;;;;;;459852;258;27039;-67
2022/01/25 07:29:30;;;;;;;7.43;5.87;;;-3.00;99.90;;;;;;459881;258;27609;-68
2022/01/25 07:31:32;;;;;;;7.78;5.87;;;;;;;;;;459879;258;27566;-67
2022/01/25 07:33:35;;;;;;;6.65;5.37;;;;;;;;;;459846;258;26583;-68
2022/01/25 07:35:38;;;;;;;9.13;6.05;;;;;;;;;;459893;258;27193;-68
2022/01/25 07:37:38;;;;;;;6.45;5.55;;;-2.90;99.90;;;;;;459854;258;26835;-67
2022/01/25 07:39:42;;;;;;;8.30;6.30;;;;;;;;;;459838;258;27146;-68
2022/01/25 07:41:44;;;;;;;8.95;6.28;;;-3.10;99.90;;;;;;459801;258;26689;-68
2022/01/25 07:43:45;;;;;;;8.50;6.15;;;;;;;;;;459862;258;27133;-67
2022/01/25 07:45:51;;;;;;;10.30;6.70;;;-3.20;99.90;;;;;;459846;258;27113;-69
2022/01/25 07:47:47;;;;;;;10.10;6.62;;;-3.10;99.90;;;;;;459846;258;27039;-67
2022/01/25 07:49:50;;;;;;;11.60;7.07;;;;;;;;;;459884;258;27042;-68
2022/01/25 07:51:51;;;;;;;8.40;6.82;;;-3.00;99.90;;;;;;459870;258;27098;-68
2022/01/25 07:53:52;;;;;;;13.90;7.18;;;-2.90;99.90;;;;;;459832;258;27834;-68
2022/01/25 07:55:53;;;;;;;10.68;6.95;;;-2.90;99.90;;;;;;459861;258;27253;-68
2022/01/25 07:57:54;;;;;;;9.60;7.37;;;-2.90;99.90;;;;;;459880;258;27326;-67
2022/01/25 07:59:57;;;;;;;10.10;7.30;;;-2.80;99.90;;;;;;459850;258;27092;-68
2022/01/25 08:01:58;;;;;;;10.45;7.10;;;;;;;;;;459848;258;27343;-68
2022/01/25 08:03:59;;;;;;;12.37;7.20;;;-2.70;99.90;;;;;;459881;258;26603;-67
2022/01/25 08:06:01;;;;;;;8.45;6.80;;;-2.70;99.90;;;;;;460355;258;27169;-68
2022/01/25 08:08:03;;;;;;;13.55;7.03;;;-2.60;99.90;;;;;;459864;258;27023;-67
2022/01/25 08:10:03;;;;;;;10.75;6.65;;;-2.60;99.90;;;;;;459823;258;27788;-68
2022/01/25 08:12:05;;;;;;;9.27;7.10;;;-2.50;99.90;;;;;;459849;258;27547;-68
2022/01/25 08:14:17;;;;;;;10.15;6.87;;;-2.50;99.90;;;;;;459859;258;27274;-68
2022/01/25 08:16:13;;;;;;;9.20;6.75;;;-2.50;99.90;;;;;;459696;258;28001;-67
2022/01/25 08:18:14;;;;;;;9.07;6.60;;;-2.40;99.90;;;;;;459856;258;27091;-67
2022/01/25 08:20:16;;;;;;;9.95;7.15;;;-2.50;99.90;;;;;;459861;258;27442;-68
2022/01/25 08:22:18;;;;;;;10.85;6.82;;;-2.50;99.90;;;;;;459862;258;27281;-68
2022/01/25 08:24:21;;;;;;;10.60;6.85;;;-2.50;99.90;;;;;;459840;258;27145;-68
2022/01/25 08:26:23;;;;;;;10.40;6.95;;;-2.50;99.90;;;;;;459846;258;27341;-68
2022/01/25 08:28:24;;;;;;;11.00;7.43;;;-2.50;99.90;;;;;;459665;258;27783;-68
2022/01/25 08:30:25;;;;;;;12.18;7.68;;;-2.40;99.90;;;;;;459725;258;27957;-68
2022/01/25 08:32:26;;;;;;;9.02;6.45;;;-2.40;99.90;;;;;;459668;258;27319;-68
2022/01/25 08:34:28;;;;;;;9.20;6.35;;;-2.30;99.90;;;;;;459691;258;27614;-67
2022/01/25 08:36:29;;;;;;;13.32;7.15;;;-2.20;99.90;;;;;;459743;258;27327;-68
2022/01/25 08:38:30;;;;;;;11.20;6.85;;;-2.10;99.90;;;;;;459865;258;27357;-68
2022/01/25 08:40:33;;;;;;;12.50;7.32;;;-2.00;99.90;;;;;;459899;258;27567;-68
2022/01/25 08:42:33;;;;;;;11.57;7.25;;;-2.00;99.90;;;;;;459887;255;27451;-68
2022/01/25 08:44:34;;;;;;;11.48;7.32;;;-2.00;99.90;;;;;;459873;258;27930;-68
2022/01/25 08:46:35;;;;;;;8.45;6.12;;;-1.90;99.90;;;;;;459885;258;29788;-68
2022/01/25 08:48:36;;;;;;;10.82;6.85;;;-1.80;99.90;;;;;;459895;258;27387;-68
2022/01/25 08:50:38;;;;;;;14.23;7.22;;;-1.70;99.90;;;;;;459887;258;27406;-68
2022/01/25 08:52:39;;;;;;;12.70;8.02;;;-1.70;99.90;;;;;;459859;258;27461;-68
2022/01/25 08:54:40;;;;;;;11.75;7.10;;;-1.60;99.90;;;;;;459869;258;27507;-68
2022/01/25 08:56:41;;;;;;;11.50;8.07;;;-1.60;99.90;;;;;;459916;258;27515;-68
2022/01/25 08:58:43;;;;;;;12.23;7.95;;;-1.70;99.90;;;;;;459874;254;27475;-68
2022/01/25 09:00:44;;;;;;;15.50;8.25;;;-1.70;99.90;;;;;;459869;258;27950;-67
2022/01/25 09:02:45;;;;;;;12.93;7.82;;;-1.60;99.90;;;;;;459869;258;29016;-68
2022/01/25 09:04:46;;;;;;;13.98;8.32;;;-1.60;99.90;;;;;;459875;258;27475;-68
2022/01/25 09:06:48;;;;;;;16.95;8.65;;;-1.60;99.90;;;;;;459879;258;27529;-68
2022/01/25 09:08:49;;;;;;;11.95;7.72;;;-1.60;99.90;;;;;;459888;258;27331;-68
2022/01/25 09:10:52;;;;;;;12.90;7.32;;;-1.60;99.90;;;;;;459900;258;27539;-68
2022/01/25 09:12:51;;;;;;;11.63;7.62;;;-1.60;99.90;;;;;;459850;258;27470;-68
2022/01/25 09:14:53;;;;;;;14.80;8.35;;;-1.60;99.90;;;;;;459868;258;27479;-68
2022/01/25 09:16:54;;;;;;;12.30;8.10;;;-1.60;99.90;;;;;;459892;258;27981;-68
2022/01/25 09:18:55;;;;;;;10.93;7.57;;;-1.50;99.90;;;;;;459889;258;29139;-68
2022/01/25 09:20:56;;;;;;;12.52;7.90;;;-1.40;99.90;;;;;;459878;258;27503;-68
2022/01/25 09:22:58;;;;;;;14.70;8.80;;;-1.40;99.90;;;;;;459868;258;27608;-68
2022/01/25 09:24:59;;;;;;;13.60;8.10;;;-1.40;99.90;;;;;;459903;258;27478;-68
2022/01/25 09:27:02;;;;;;;15.75;8.60;;;-1.30;99.90;;;;;;459906;258;27502;-67
2022/01/25 09:29:01;;;;;;;13.88;8.40;;;-1.30;99.90;;;;;;459871;258;27458;-68
2022/01/25 09:31:03;;;;;;;11.65;8.27;;;-1.30;99.90;;;;;;459868;258;27970;-68
2022/01/25 09:33:04;;;;;;;15.00;8.32;;;-1.30;99.90;;;;;;459899;258;28180;-69
2022/01/25 09:35:06;;;;;;;13.25;8.40;;;-1.30;99.90;;;;;;459888;258;27470;-68
2022/01/25 09:37:06;;;;;;;14.30;8.73;;;-1.30;99.90;;;;;;459867;258;27494;-68
2022/01/25 09:39:08;;;;;;;12.00;7.90;;;-1.20;99.90;;;;;;459848;258;27556;-68
2022/01/25 09:41:09;;;;;;;11.50;7.72;;;-1.20;99.90;;;;;;459870;258;27590;-68
2022/01/25 09:43:10;;;;;;;10.82;6.97;;;-1.20;99.90;;;;;;459886;258;27522;-68
2022/01/25 09:45:12;;;;;;;13.40;8.18;;;-1.10;99.90;;;;;;459876;258;27464;-68
2022/01/25 09:47:13;;;;;;;12.70;7.35;;;-1.10;99.90;;;;;;459870;258;27966;-67
2022/01/25 09:49:16;;;;;;;12.43;7.82;;;-1.00;99.90;;;;;;459856;258;27971;-68
2022/01/25 09:51:15;;;;;;;11.98;8.05;;;-1.00;99.90;;;;;;459855;258;27503;-68
2022/01/25 09:53:17;;;;;;;14.00;7.60;;;-1.00;99.90;;;;;;459885;258;27498;-68
2022/01/25 09:55:18;;;;;;;10.00;7.00;;;-0.90;99.90;;;;;;459874;258;27463;-68
2022/01/25 09:57:19;;;;;;;13.00;8.00;;;-0.90;99.90;;;;;;459861;258;27602;-68
2022/01/25 09:59:20;;;;;;;15.20;8.65;;;-0.80;99.90;;;;;;459872;258;27475;-68
2022/01/25 10:01:22;;;;;;;13.32;7.03;;;-0.80;99.90;;;;;;459869;258;27464;-68
2022/01/25 10:03:31;;;;;;;13.40;7.57;;;-0.70;99.90;;;;;;459895;258;27993;-68
2022/01/25 10:05:33;;;;;;;8.68;7.32;;;-0.70;99.90;;;;;;459866;258;29230;-68
2022/01/25 10:07:31;;;;;;;14.73;7.22;;;-0.60;99.90;;;;;;459846;258;27567;-68
2022/01/25 10:09:32;;;;;;;11.18;7.30;;;-0.60;99.90;;;;;;459877;258;27467;-68
2022/01/25 10:11:34;;;;;;;11.38;7.40;;;-0.50;99.90;;;;;;459908;258;27550;-68
2022/01/25 10:13:35;;;;;;;10.75;6.35;;;-0.40;99.90;;;;;;459871;258;28006;-67
2022/01/25 10:15:36;;;;;;;11.40;7.40;;;-0.40;99.90;;;;;;459858;258;28019;-68
2022/01/25 10:17:41;;;;;;;11.15;6.68;;;-0.30;99.90;;;;;;459856;258;27523;-68
2022/01/25 10:19:40;;;;;;;7.60;6.18;;;-0.30;99.90;;;;;;459877;258;27552;-68
2022/01/25 10:21:40;;;;;;;11.73;6.97;;;-0.20;99.90;;;;;;459864;258;27536;-68
2022/01/25 10:23:43;;;;;;;9.77;6.60;;;-0.20;99.90;;;;;;459880;258;27534;-68
2022/01/25 10:25:43;;;;;;;8.57;6.28;;;-0.20;99.90;;;;;;459869;258;27555;-68
2022/01/25 10:30:00;;;;;;;9.32;7.37;;;-0.10;99.90;;;;;;451522;263;27573;-68
2022/01/25 10:32:02;;;;;;;10.20;7.20;;;0.00;99.90;;;;;;451540;263;27581;-68
2022/01/25 10:34:03;;;;;;;8.90;6.50;;;0.10;99.90;;;;;;451538;263;27593;-68
2022/01/25 10:36:04;;;;;;;11.10;7.12;;;0.10;99.90;;;;;;451544;263;27581;-68
2022/01/25 10:38:05;;;;;;;10.32;6.90;;;0.20;99.90;;;;;;451555;263;27605;-68
2022/01/25 10:40:07;;;;;;;11.98;7.82;;;0.20;99.90;;;;;;451558;263;28144;-68
2022/01/25 10:42:08;;;;;;;10.98;7.78;;;0.30;99.90;;;;;;451546;263;28174;-68
2022/01/25 10:44:09;;;;;;;12.63;7.72;;;0.40;99.90;;;;;;451555;263;29383;-68
2022/01/25 10:46:10;;;;;;;13.30;7.68;;;0.50;99.90;;;;;;451593;263;27825;-67
2022/01/25 10:48:14;;;;;;;15.23;8.50;;;0.50;99.90;;;;;;451567;263;27593;-68
2022/01/25 10:50:13;;;;;;;12.77;8.60;;;0.50;99.90;;;;;;451534;263;27663;-68
2022/01/25 10:52:14;;;;;;;11.93;7.50;;;0.50;99.90;;;;;;451530;263;27612;-68
2022/01/25 10:54:15;;;;;;;14.50;9.30;;;0.60;99.90;;;;;;451559;263;27676;-68
2022/01/25 10:56:17;;;;;;;14.60;8.68;;;0.60;99.90;;;;;;451549;263;27815;-68
2022/01/25 10:58:18;;;;;;;11.95;8.38;;;0.60;99.90;;;;;;451543;263;27592;-68
2022/01/25 11:00:19;;;;;;;14.05;9.50;;;0.60;99.90;;;;;;451529;263;28044;-67
2022/01/25 11:02:21;;;;;;;12.43;8.25;;;0.60;99.90;;;;;;451553;263;28110;-68
2022/01/25 11:04:22;;;;;;;14.82;8.50;;;0.60;99.90;;;;;;452349;258;27712;-68
2022/01/25 11:06:25;;;;;;;13.90;8.77;;;0.70;99.90;;;;;;460339;258;27471;-68
2022/01/25 11:08:24;;;;;;;13.30;9.23;;;0.70;99.90;;;;;;459853;258;27990;-68
2022/01/25 11:10:26;;;;;;;14.82;9.30;;;0.70;99.90;;;;;;459872;258;28724;-68
2022/01/25 11:12:35;;;;;;;16.02;10.40;;;0.70;99.90;;;;;;459883;258;27479;-68
2022/01/25 11:16:48;;;;;;;15.95;9.30;;;0.80;99.90;;;;;;459859;258;27571;-68
2022/01/25 11:18:49;;;;;;;16.02;9.80;;;0.80;99.90;;;;;;460346;258;27468;-68
2022/01/25 11:20:51;;;;;;;16.90;9.60;;;0.90;99.90;;;;;;459847;258;27510;-68
2022/01/25 11:22:52;;;;;;;13.48;9.02;;;0.90;99.90;;;;;;459845;258;27546;-68
2022/01/25 11:24:53;;;;;;;14.95;9.65;;;0.90;99.90;;;;;;459847;258;27507;-68
2022/01/25 11:26:54;;;;;;;13.45;9.30;;;0.90;99.90;;;;;;459881;258;27838;-68
2022/01/25 11:28:56;;;;;;;15.75;8.98;;;1.00;99.90;;;;;;459867;258;27515;-68
2022/01/25 11:30:57;;;;;;;14.32;9.13;;;1.00;99.90;;;;;;459857;258;28013;-68
2022/01/25 11:32:58;;;;;;;13.82;9.00;;;1.00;99.90;;;;;;459845;258;27923;-68
2022/01/25 11:34:59;;;;;;;13.40;9.60;;;1.10;99.90;;;;;;459856;258;27925;-68
2022/01/25 11:37:02;;;;;;;14.25;8.90;;;1.10;99.90;;;;;;459874;258;27491;-69
2022/01/25 11:39:02;;;;;;;14.00;9.27;;;1.10;99.90;;;;;;459849;258;27463;-68
2022/01/25 11:41:03;;;;;;;14.00;9.65;;;1.10;99.90;;;;;;459859;258;27575;-68
2022/01/25 11:43:04;;;;;;;14.85;9.80;;;1.20;99.90;;;;;;459883;258;27482;-69
2022/01/25 11:45:06;;;;;;;15.40;9.27;;;1.10;99.90;;;;;;459845;258;27611;-68
2022/01/25 11:47:07;;;;;;;15.13;9.38;;;1.10;99.90;;;;;;459888;258;27499;-68
2022/01/25 11:49:08;;;;;;;16.77;10.63;;;1.10;99.90;;;;;;459863;258;27514;-68
2022/01/25 11:51:09;;;;;;;16.12;9.70;;;1.20;99.90;;;;;;459861;258;27994;-68
2022/01/25 11:53:10;;;;;;;15.23;9.20;;;1.30;99.90;;;;;;459851;258;27939;-68
2022/01/25 11:55:12;;;;;;;16.85;9.57;;;1.30;99.90;;;;;;459880;258;27550;-68
2022/01/25 11:57:13;;;;;;;13.05;9.02;;;1.30;99.90;;;;;;459893;258;27490;-68
2022/01/25 11:59:14;;;;;;;16.75;10.60;;;1.40;99.90;;;;;;459892;258;27460;-68
2022/01/25 12:01:16;;;;;;;16.20;10.50;;;1.40;99.90;;;;;;459888;258;27566;-68
2022/01/25 12:03:17;;;;;;;14.13;9.02;;;1.40;99.90;;;;;;459845;258;27494;-68
2022/01/25 12:05:18;;;;;;;14.98;9.88;;;1.50;99.90;;;;;;459894;258;27568;-68
2022/01/25 12:07:24;;;;;;;13.70;8.95;;;1.50;99.90;;;;;;459887;258;27499;-68
2022/01/25 12:09:41;;;;;;;14.40;9.35;;;1.60;99.90;;;;;;459887;258;27909;-68
2022/01/25 12:11:22;;;;;;;16.00;9.48;;;1.60;99.90;;;;;;459940;258;28021;-68
2022/01/25 12:13:26;;;;;;;14.60;9.68;;;1.60;99.90;;;;;;459912;258;27494;-68
2022/01/25 12:15:24;;;;;;;16.70;10.13;;;1.60;99.90;;;;;;459661;258;27533;-68
2022/01/25 12:17:25;;;;;;;13.68;9.55;;;1.70;99.90;;;;;;459882;258;27594;-68
2022/01/25 12:19:27;;;;;;;17.42;10.57;;;1.70;99.90;;;;;;459860;258;27463;-68
2022/01/25 12:21:28;;;;;;;14.70;9.63;;;1.70;99.90;;;;;;459868;258;27535;-68
2022/01/25 12:23:32;;;;;;;13.77;10.00;;;1.70;99.90;;;;;;459900;258;27498;-68